createdAt,value
2023-01-22T00:00:40.479Z,1018.65
2023-01-22T00:01:40.466Z,1018.65
2023-01-22T00:02:40.588Z,1018.66
2023-01-22T00:03:40.522Z,1018.62
2023-01-22T00:04:40.420Z,1018.59
2023-01-22T00:05:40.437Z,1018.55
2023-01-22T00:06:40.401Z,1018.51
2023-01-22T00:07:40.413Z,1018.52
2023-01-22T00:08:40.387Z,1018.49
2023-01-22T00:09:40.389Z,1018.51
2023-01-22T00:10:40.385Z,1018.51
2023-01-22T00:11:40.365Z,1018.51
2023-01-22T00:12:40.358Z,1018.47
2023-01-22T00:13:40.353Z,1018.48
2023-01-22T00:14:40.408Z,1018.50
2023-01-22T00:15:40.462Z,1018.49
2023-01-22T00:16:40.297Z,1018.53
2023-01-22T00:17:40.322Z,1018.55
2023-01-22T00:18:40.285Z,1018.58
2023-01-22T00:19:40.278Z,1018.57
2023-01-22T00:20:41.608Z,1018.57
2023-01-22T00:21:40.256Z,1018.57
2023-01-22T00:22:40.333Z,1018.57
2023-01-22T00:23:40.280Z,1018.52
2023-01-22T00:24:40.218Z,1018.46
2023-01-22T00:25:40.225Z,1018.45
2023-01-22T00:26:40.196Z,1018.41
2023-01-22T00:27:40.397Z,1018.37
2023-01-22T00:28:40.173Z,1018.34
2023-01-22T00:29:40.196Z,1018.28
2023-01-22T00:30:40.163Z,1018.27
2023-01-22T00:31:40.243Z,1018.29
2023-01-22T00:32:40.129Z,1018.31
2023-01-22T00:33:40.164Z,1018.30
2023-01-22T00:34:40.120Z,1018.30
2023-01-22T00:35:40.114Z,1018.31
2023-01-22T00:36:40.094Z,1018.31
2023-01-22T00:37:40.138Z,1018.29
2023-01-22T00:38:40.101Z,1018.34
2023-01-22T00:39:40.073Z,1018.32
2023-01-22T00:40:40.045Z,1018.27
2023-01-22T00:41:40.059Z,1018.23
2023-01-22T00:42:40.046Z,1018.23
2023-01-22T00:43:40.776Z,1018.26
2023-01-22T00:44:40.021Z,1018.28
2023-01-22T00:45:40.043Z,1018.28
2023-01-22T00:46:40.076Z,1018.26
2023-01-22T00:47:39.999Z,1018.28
2023-01-22T00:48:39.985Z,1018.27
2023-01-22T00:49:40.028Z,1018.25
2023-01-22T00:50:39.963Z,1018.18
2023-01-22T00:51:39.965Z,1018.16
2023-01-22T00:52:39.943Z,1018.17
2023-01-22T00:53:39.934Z,1018.10
2023-01-22T00:54:39.939Z,1018.11
2023-01-22T00:55:39.914Z,1018.04
2023-01-22T00:56:39.889Z,1018.01
2023-01-22T00:57:39.924Z,1017.99
2023-01-22T00:58:39.900Z,1017.93
2023-01-22T00:59:39.932Z,1017.96
2023-01-22T01:00:39.850Z,1017.94
2023-01-22T01:01:39.910Z,1017.96
2023-01-22T01:02:39.891Z,1017.93
2023-01-22T01:03:39.840Z,1017.88
2023-01-22T01:04:39.804Z,1017.88
2023-01-22T01:05:39.880Z,1017.91
2023-01-22T01:06:39.797Z,1017.92
2023-01-22T01:07:39.811Z,1017.95
2023-01-22T01:08:39.789Z,1018.05
2023-01-22T01:09:39.793Z,1017.96
2023-01-22T01:10:39.772Z,1017.97
2023-01-22T01:11:39.766Z,1018.00
2023-01-22T01:12:39.719Z,1017.96
2023-01-22T01:13:39.730Z,1018.01
2023-01-22T01:14:39.717Z,1018.05
2023-01-22T01:15:39.709Z,1018.04
2023-01-22T01:16:39.968Z,1017.99
2023-01-22T01:17:39.714Z,1018.00
2023-01-22T01:18:39.694Z,1017.99
2023-01-22T01:19:39.670Z,1018.01
2023-01-22T01:20:39.669Z,1018.01
2023-01-22T01:21:39.669Z,1017.97
2023-01-22T01:22:39.686Z,1017.95
2023-01-22T01:23:39.619Z,1018.01
2023-01-22T01:24:39.607Z,1018.04
2023-01-22T01:25:39.662Z,1018.01
2023-01-22T01:26:39.614Z,1017.99
2023-01-22T01:27:39.629Z,1017.95
2023-01-22T01:28:39.749Z,1017.99
2023-01-22T01:29:39.600Z,1017.96
2023-01-22T01:30:39.610Z,1017.97
2023-01-22T01:31:39.725Z,1017.99
2023-01-22T01:32:39.519Z,1018.02
2023-01-22T01:33:39.525Z,1018.00
2023-01-22T01:34:39.503Z,1018.07
2023-01-22T01:35:39.506Z,1018.06
2023-01-22T01:36:48.624Z,1018.05
2023-01-22T01:37:39.497Z,1018.05
2023-01-22T01:38:39.500Z,1018.08
2023-01-22T01:39:39.454Z,1018.06
2023-01-22T01:40:39.432Z,1018.06
2023-01-22T01:41:39.475Z,1018.08
2023-01-22T01:42:39.466Z,1018.06
2023-01-22T01:43:39.421Z,1017.99
2023-01-22T01:44:39.410Z,1018.01
2023-01-22T01:45:39.393Z,1017.97
2023-01-22T01:46:39.520Z,1017.99
2023-01-22T01:47:39.369Z,1018.00
2023-01-22T01:48:39.354Z,1018.00
2023-01-22T01:49:39.384Z,1017.97
2023-01-22T01:50:39.352Z,1017.97
2023-01-22T01:51:39.360Z,1017.90
2023-01-22T01:52:39.334Z,1017.91
2023-01-22T01:53:39.321Z,1017.93
2023-01-22T01:54:39.389Z,1017.95
2023-01-22T01:55:39.288Z,1017.99
2023-01-22T01:56:39.296Z,1017.98
2023-01-22T01:57:39.295Z,1017.99
2023-01-22T01:58:39.257Z,1018.07
2023-01-22T01:59:39.259Z,1018.04
2023-01-22T02:00:39.263Z,1018.02
2023-01-22T02:01:39.297Z,1017.97
2023-01-22T02:02:39.213Z,1017.99
2023-01-22T02:03:39.221Z,1017.98
2023-01-22T02:04:39.191Z,1018.00
2023-01-22T02:05:39.213Z,1018.00
2023-01-22T02:06:39.171Z,1017.98
2023-01-22T02:07:39.199Z,1017.97
2023-01-22T02:08:39.152Z,1017.98
2023-01-22T02:09:39.155Z,1018.01
2023-01-22T02:10:39.141Z,1017.99
2023-01-22T02:11:39.195Z,1018.03
2023-01-22T02:12:39.106Z,1017.97
2023-01-22T02:13:39.172Z,1017.96
2023-01-22T02:14:39.130Z,1017.99
2023-01-22T02:15:39.109Z,1018.00
2023-01-22T02:16:39.177Z,1017.98
2023-01-22T02:17:39.086Z,1018.01
2023-01-22T02:18:39.069Z,1017.99
2023-01-22T02:19:39.056Z,1018.01
2023-01-22T02:20:39.070Z,1017.99
2023-01-22T02:21:39.072Z,1017.97
2023-01-22T02:22:39.034Z,1018.00
2023-01-22T02:23:39.019Z,1018.01
2023-01-22T02:24:39.005Z,1018.02
2023-01-22T02:25:38.984Z,1018.02
2023-01-22T02:26:38.980Z,1018.02
2023-01-22T02:27:39.013Z,1017.99
2023-01-22T02:28:38.960Z,1017.98
2023-01-22T02:29:38.940Z,1018.01
2023-01-22T02:30:38.961Z,1017.98
2023-01-22T02:31:39.059Z,1018.01
2023-01-22T02:32:38.938Z,1018.01
2023-01-22T02:33:38.896Z,1017.98
2023-01-22T02:34:38.893Z,1018.01
2023-01-22T02:35:38.878Z,1018.01
2023-01-22T02:36:38.908Z,1018.00
2023-01-22T02:37:38.883Z,1017.98
2023-01-22T02:38:38.844Z,1017.96
2023-01-22T02:39:38.899Z,1018.00
2023-01-22T02:40:38.857Z,1017.96
2023-01-22T02:41:38.831Z,1017.95
2023-01-22T02:42:38.841Z,1017.96
2023-01-22T02:43:38.820Z,1017.96
2023-01-22T02:44:38.814Z,1017.99
2023-01-22T02:45:38.841Z,1017.99
2023-01-22T02:46:38.776Z,1018.02
2023-01-22T02:47:38.836Z,1018.00
2023-01-22T02:48:38.758Z,1017.99
2023-01-22T02:49:38.743Z,1017.97
2023-01-22T02:50:38.737Z,1017.98
2023-01-22T02:51:38.706Z,1017.97
2023-01-22T02:52:38.713Z,1017.93
2023-01-22T02:53:38.738Z,1017.93
2023-01-22T02:54:38.691Z,1017.92
2023-01-22T02:55:38.681Z,1017.96
2023-01-22T02:56:38.679Z,1017.95
2023-01-22T02:57:38.646Z,1018.00
2023-01-22T02:58:38.652Z,1017.98
2023-01-22T02:59:38.671Z,1017.98
2023-01-22T03:00:38.665Z,1018.00
2023-01-22T03:01:38.619Z,1017.96
2023-01-22T03:02:38.603Z,1017.96
2023-01-22T03:03:38.654Z,1017.97
2023-01-22T03:04:38.997Z,1017.93
2023-01-22T03:05:38.571Z,1017.90
2023-01-22T03:06:38.600Z,1017.91
2023-01-22T03:07:38.547Z,1017.86
2023-01-22T03:08:38.548Z,1017.88
2023-01-22T03:09:38.543Z,1017.86
2023-01-22T03:10:38.547Z,1017.86
2023-01-22T03:11:38.526Z,1017.86
2023-01-22T03:12:38.515Z,1017.86
2023-01-22T03:13:38.511Z,1017.87
2023-01-22T03:14:38.525Z,1017.81
2023-01-22T03:15:38.472Z,1017.83
2023-01-22T03:16:38.498Z,1017.79
2023-01-22T03:17:38.454Z,1017.77
2023-01-22T03:18:38.451Z,1017.79
2023-01-22T03:19:38.447Z,1017.76
2023-01-22T03:20:38.436Z,1017.74
2023-01-22T03:21:38.405Z,1017.75
2023-01-22T03:22:38.421Z,1017.72
2023-01-22T03:23:38.383Z,1017.71
2023-01-22T03:24:38.388Z,1017.75
2023-01-22T03:25:38.393Z,1017.71
2023-01-22T03:26:38.482Z,1017.71
2023-01-22T03:27:38.348Z,1017.72
2023-01-22T03:28:38.356Z,1017.73
2023-01-22T03:29:38.402Z,1017.70
2023-01-22T03:30:38.323Z,1017.71
2023-01-22T03:31:38.461Z,1017.73
2023-01-22T03:32:38.331Z,1017.69
2023-01-22T03:33:38.279Z,1017.68
2023-01-22T03:34:38.293Z,1017.65
2023-01-22T03:35:38.264Z,1017.67
2023-01-22T03:36:38.378Z,1017.66
2023-01-22T03:37:38.248Z,1017.69
2023-01-22T03:38:38.267Z,1017.72
2023-01-22T03:39:38.227Z,1017.66
2023-01-22T03:40:38.220Z,1017.74
2023-01-22T03:41:38.199Z,1017.73
2023-01-22T03:42:38.200Z,1017.71
2023-01-22T03:43:38.199Z,1017.68
2023-01-22T03:44:38.215Z,1017.67
2023-01-22T03:45:38.221Z,1017.68
2023-01-22T03:46:38.155Z,1017.71
2023-01-22T03:47:38.136Z,1017.73
2023-01-22T03:48:38.169Z,1017.69
2023-01-22T03:49:38.114Z,1017.71
2023-01-22T03:50:38.129Z,1017.73
2023-01-22T03:51:38.092Z,1017.71
2023-01-22T03:52:38.095Z,1017.74
2023-01-22T03:53:38.095Z,1017.72
2023-01-22T03:54:38.065Z,1017.69
2023-01-22T03:55:38.064Z,1017.68
2023-01-22T03:56:38.079Z,1017.68
2023-01-22T03:57:38.054Z,1017.67
2023-01-22T03:58:38.055Z,1017.70
2023-01-22T03:59:38.017Z,1017.67
2023-01-22T04:00:38.019Z,1017.67
2023-01-22T04:01:38.002Z,1017.70
2023-01-22T04:02:38.068Z,1017.68
2023-01-22T04:03:37.988Z,1017.68
2023-01-22T04:04:37.980Z,1017.65
2023-01-22T04:05:37.972Z,1017.65
2023-01-22T04:06:37.959Z,1017.65
2023-01-22T04:07:37.936Z,1017.65
2023-01-22T04:08:37.947Z,1017.64
2023-01-22T04:09:37.916Z,1017.64
2023-01-22T04:10:37.925Z,1017.62
2023-01-22T04:11:37.922Z,1017.61
2023-01-22T04:12:37.903Z,1017.61
2023-01-22T04:13:37.878Z,1017.64
2023-01-22T04:14:37.877Z,1017.65
2023-01-22T04:15:37.866Z,1017.64
2023-01-22T04:16:37.867Z,1017.68
2023-01-22T04:17:37.847Z,1017.66
2023-01-22T04:18:37.825Z,1017.65
2023-01-22T04:19:37.839Z,1017.64
2023-01-22T04:20:37.861Z,1017.67
2023-01-22T04:21:37.786Z,1017.71
2023-01-22T04:22:37.801Z,1017.73
2023-01-22T04:23:37.771Z,1017.71
2023-01-22T04:24:37.765Z,1017.70
2023-01-22T04:25:37.774Z,1017.73
2023-01-22T04:26:37.746Z,1017.76
2023-01-22T04:27:37.750Z,1017.79
2023-01-22T04:28:37.739Z,1017.82
2023-01-22T04:29:37.721Z,1017.81
2023-01-22T04:30:37.757Z,1017.83
2023-01-22T04:31:37.789Z,1017.85
2023-01-22T04:32:37.691Z,1017.84
2023-01-22T04:33:37.684Z,1017.86
2023-01-22T04:34:37.679Z,1017.83
2023-01-22T04:35:37.677Z,1017.82
2023-01-22T04:36:37.663Z,1017.81
2023-01-22T04:37:37.643Z,1017.80
2023-01-22T04:38:37.628Z,1017.78
2023-01-22T04:39:37.617Z,1017.78
2023-01-22T04:40:37.644Z,1017.81
2023-01-22T04:41:37.670Z,1017.79
2023-01-22T04:42:37.591Z,1017.80
2023-01-22T04:43:37.563Z,1017.76
2023-01-22T04:44:37.637Z,1017.76
2023-01-22T04:45:37.552Z,1017.77
2023-01-22T04:46:37.562Z,1017.72
2023-01-22T04:47:37.540Z,1017.74
2023-01-22T04:48:37.527Z,1017.73
2023-01-22T04:49:37.499Z,1017.70
2023-01-22T04:50:37.504Z,1017.69
2023-01-22T04:51:37.521Z,1017.67
2023-01-22T04:52:37.491Z,1017.68
2023-01-22T04:53:37.473Z,1017.67
2023-01-22T04:54:37.455Z,1017.67
2023-01-22T04:55:37.453Z,1017.68
2023-01-22T04:56:37.558Z,1017.69
2023-01-22T04:57:37.410Z,1017.69
2023-01-22T04:58:37.425Z,1017.69
2023-01-22T04:59:37.407Z,1017.70
2023-01-22T05:00:37.395Z,1017.70
2023-01-22T05:01:37.748Z,1017.71
2023-01-22T05:02:37.601Z,1017.73
2023-01-22T05:03:37.377Z,1017.74
2023-01-22T05:04:37.371Z,1017.73
2023-01-22T05:05:37.354Z,1017.72
2023-01-22T05:06:37.803Z,1017.73
2023-01-22T05:07:37.356Z,1017.69
2023-01-22T05:08:37.358Z,1017.70
2023-01-22T05:09:37.298Z,1017.72
2023-01-22T05:10:37.285Z,1017.71
2023-01-22T05:11:37.290Z,1017.70
2023-01-22T05:12:46.507Z,1017.69
2023-01-22T05:13:37.258Z,1017.69
2023-01-22T05:14:37.262Z,1017.68
2023-01-22T05:15:37.279Z,1017.66
2023-01-22T05:16:37.409Z,1017.66
2023-01-22T05:17:37.339Z,1017.64
2023-01-22T05:18:37.290Z,1017.62
2023-01-22T05:19:37.392Z,1017.61
2023-01-22T05:20:37.252Z,1017.59
2023-01-22T05:21:37.271Z,1017.60
2023-01-22T05:22:37.197Z,1017.59
2023-01-22T05:23:37.286Z,1017.59
2023-01-22T05:24:37.193Z,1017.60
2023-01-22T05:25:37.167Z,1017.60
2023-01-22T05:26:37.157Z,1017.59
2023-01-22T05:27:37.136Z,1017.62
2023-01-22T05:28:37.142Z,1017.59
2023-01-22T05:29:37.211Z,1017.63
2023-01-22T05:30:37.146Z,1017.64
2023-01-22T05:31:37.162Z,1017.66
2023-01-22T05:32:37.180Z,1017.64
2023-01-22T05:33:37.139Z,1017.64
2023-01-22T05:34:37.060Z,1017.65
2023-01-22T05:35:37.055Z,1017.71
2023-01-22T05:36:37.039Z,1017.71
2023-01-22T05:37:37.033Z,1017.72
2023-01-22T05:38:37.120Z,1017.73
2023-01-22T05:39:36.998Z,1017.74
2023-01-22T05:40:37.080Z,1017.74
2023-01-22T05:41:37.022Z,1017.74
2023-01-22T05:42:37.007Z,1017.77
2023-01-22T05:43:36.976Z,1017.76
2023-01-22T05:44:36.942Z,1017.76
2023-01-22T05:45:37.032Z,1017.77
2023-01-22T05:46:36.963Z,1017.80
2023-01-22T05:47:36.982Z,1017.80
2023-01-22T05:48:36.940Z,1017.80
2023-01-22T05:49:36.902Z,1017.78
2023-01-22T05:50:36.906Z,1017.78
2023-01-22T05:51:36.937Z,1017.79
2023-01-22T05:52:37.059Z,1017.80
2023-01-22T05:53:36.938Z,1017.79
2023-01-22T05:54:36.904Z,1017.80
2023-01-22T05:55:36.923Z,1017.79
2023-01-22T05:56:36.834Z,1017.81
2023-01-22T05:57:36.830Z,1017.78
2023-01-22T05:58:36.808Z,1017.78
2023-01-22T05:59:36.790Z,1017.75
2023-01-22T06:00:36.783Z,1017.76
2023-01-22T06:01:36.855Z,1017.76
2023-01-22T06:02:36.800Z,1017.78
2023-01-22T06:03:36.803Z,1017.79
2023-01-22T06:04:36.753Z,1017.78
2023-01-22T06:05:37.041Z,1017.78
2023-01-22T06:06:36.763Z,1017.75
2023-01-22T06:07:36.867Z,1017.75
2023-01-22T06:08:36.808Z,1017.76
2023-01-22T06:09:36.705Z,1017.74
2023-01-22T06:10:36.695Z,1017.76
2023-01-22T06:11:36.679Z,1017.73
2023-01-22T06:12:36.673Z,1017.76
2023-01-22T06:13:36.705Z,1017.77
2023-01-22T06:14:36.757Z,1017.77
2023-01-22T06:15:36.652Z,1017.77
2023-01-22T06:16:36.648Z,1017.76
2023-01-22T06:17:36.625Z,1017.76
2023-01-22T06:18:36.677Z,1017.78
2023-01-22T06:19:36.630Z,1017.78
2023-01-22T06:20:36.590Z,1017.79
2023-01-22T06:21:36.592Z,1017.77
2023-01-22T06:22:36.562Z,1017.78
2023-01-22T06:23:36.566Z,1017.76
2023-01-22T06:24:36.561Z,1017.76
2023-01-22T06:25:36.786Z,1017.77
2023-01-22T06:26:36.528Z,1017.73
2023-01-22T06:27:36.498Z,1017.74
2023-01-22T06:28:36.513Z,1017.75
2023-01-22T06:29:38.134Z,1017.73
2023-01-22T06:30:36.543Z,1017.73
2023-01-22T06:31:36.529Z,1017.72
2023-01-22T06:32:36.461Z,1017.72
2023-01-22T06:33:36.559Z,1017.73
2023-01-22T06:34:36.450Z,1017.73
2023-01-22T06:35:36.544Z,1017.74
2023-01-22T06:36:36.423Z,1017.74
2023-01-22T06:37:36.465Z,1017.72
2023-01-22T06:38:36.393Z,1017.72
2023-01-22T06:39:36.405Z,1017.73
2023-01-22T06:40:36.394Z,1017.75
2023-01-22T06:41:36.381Z,1017.74
2023-01-22T06:42:36.391Z,1017.75
2023-01-22T06:43:36.415Z,1017.76
2023-01-22T06:44:36.332Z,1017.76
2023-01-22T06:45:36.581Z,1017.76
2023-01-22T06:46:36.379Z,1017.74
2023-01-22T06:47:36.337Z,1017.76
2023-01-22T06:48:36.288Z,1017.77
2023-01-22T06:49:36.357Z,1017.75
2023-01-22T06:50:36.258Z,1017.76
2023-01-22T06:51:36.352Z,1017.76
2023-01-22T06:52:36.366Z,1017.77
2023-01-22T06:53:36.261Z,1017.76
2023-01-22T06:54:36.328Z,1017.79
2023-01-22T06:55:36.218Z,1017.79
2023-01-22T06:56:36.209Z,1017.78
2023-01-22T06:57:36.172Z,1017.79
2023-01-22T06:58:36.193Z,1017.79
2023-01-22T06:59:37.198Z,1017.81
2023-01-22T07:00:36.197Z,1017.82
2023-01-22T07:01:36.251Z,1017.84
2023-01-22T07:02:36.203Z,1017.84
2023-01-22T07:03:36.146Z,1017.88
2023-01-22T07:04:36.157Z,1017.89
2023-01-22T07:05:36.095Z,1017.90
2023-01-22T07:06:36.080Z,1017.94
2023-01-22T07:07:36.048Z,1017.93
2023-01-22T07:08:36.115Z,1017.94
2023-01-22T07:09:36.032Z,1017.95
2023-01-22T07:10:36.033Z,1017.97
2023-01-22T07:11:36.009Z,1017.99
2023-01-22T07:12:36.349Z,1018.01
2023-01-22T07:13:35.975Z,1018.02
2023-01-22T07:14:37.458Z,1018.02
2023-01-22T07:15:36.071Z,1018.03
2023-01-22T07:16:35.995Z,1018.03
2023-01-22T07:17:35.949Z,1018.00
2023-01-22T07:18:35.957Z,1018.01
2023-01-22T07:19:36.058Z,1017.96
2023-01-22T07:20:35.945Z,1017.96
2023-01-22T07:21:35.915Z,1018.01
2023-01-22T07:22:36.059Z,1017.98
2023-01-22T07:23:35.964Z,1018.00
2023-01-22T07:24:35.904Z,1018.01
2023-01-22T07:25:35.965Z,1018.02
2023-01-22T07:26:35.881Z,1018.04
2023-01-22T07:27:36.060Z,1018.05
2023-01-22T07:28:35.861Z,1018.08
2023-01-22T07:29:35.865Z,1018.09
2023-01-22T07:30:35.883Z,1018.11
2023-01-22T07:31:35.917Z,1018.12
2023-01-22T07:32:35.995Z,1018.14
2023-01-22T07:33:35.805Z,1018.14
2023-01-22T07:34:35.978Z,1018.17
2023-01-22T07:35:35.852Z,1018.17
2023-01-22T07:36:35.974Z,1018.18
2023-01-22T07:37:35.809Z,1018.20
2023-01-22T07:38:36.106Z,1018.21
2023-01-22T07:39:36.061Z,1018.22
2023-01-22T07:40:35.922Z,1018.21
2023-01-22T07:41:35.788Z,1018.21
2023-01-22T07:42:37.798Z,1018.18
2023-01-22T07:43:35.760Z,1018.22
2023-01-22T07:44:35.908Z,1018.25
2023-01-22T07:45:36.326Z,1018.24
2023-01-22T07:46:35.848Z,1018.26
2023-01-22T07:47:35.636Z,1018.24
2023-01-22T07:48:35.707Z,1018.27
2023-01-22T07:49:35.622Z,1018.27
2023-01-22T07:50:35.589Z,1018.26
2023-01-22T07:51:35.594Z,1018.28
2023-01-22T07:52:35.602Z,1018.28
2023-01-22T07:53:35.573Z,1018.30
2023-01-22T07:54:35.574Z,1018.32
2023-01-22T07:55:35.555Z,1018.35
2023-01-22T07:56:35.570Z,1018.33
2023-01-22T07:57:35.548Z,1018.35
2023-01-22T07:58:35.522Z,1018.38
2023-01-22T07:59:35.514Z,1018.38
2023-01-22T08:00:36.362Z,1018.37
2023-01-22T08:01:35.849Z,1018.36
2023-01-22T08:02:35.480Z,1018.37
2023-01-22T08:03:35.469Z,1018.37
2023-01-22T08:04:35.515Z,1018.37
2023-01-22T08:05:35.530Z,1018.37
2023-01-22T08:06:35.424Z,1018.38
2023-01-22T08:07:35.435Z,1018.40
2023-01-22T08:08:35.405Z,1018.41
2023-01-22T08:09:35.431Z,1018.44
2023-01-22T08:10:35.440Z,1018.45
2023-01-22T08:11:35.554Z,1018.48
2023-01-22T08:12:35.376Z,1018.47
2023-01-22T08:13:35.370Z,1018.47
2023-01-22T08:14:35.364Z,1018.46
2023-01-22T08:15:35.359Z,1018.44
2023-01-22T08:16:35.402Z,1018.46
2023-01-22T08:17:35.451Z,1018.45
2023-01-22T08:18:35.504Z,1018.47
2023-01-22T08:19:35.322Z,1018.48
2023-01-22T08:20:35.296Z,1018.48
2023-01-22T08:21:35.312Z,1018.49
2023-01-22T08:22:35.364Z,1018.48
2023-01-22T08:23:35.395Z,1018.48
2023-01-22T08:24:35.425Z,1018.48
2023-01-22T08:25:35.266Z,1018.47
2023-01-22T08:26:35.332Z,1018.47
2023-01-22T08:27:35.330Z,1018.49
2023-01-22T08:28:35.228Z,1018.49
2023-01-22T08:29:35.423Z,1018.46
2023-01-22T08:30:45.322Z,1018.46
2023-01-22T08:31:35.307Z,1018.49
2023-01-22T08:32:35.257Z,1018.50
2023-01-22T08:33:35.178Z,1018.49
2023-01-22T08:34:35.186Z,1018.49
2023-01-22T08:35:35.158Z,1018.49
2023-01-22T08:36:35.131Z,1018.48
2023-01-22T08:37:35.163Z,1018.48
2023-01-22T08:38:35.107Z,1018.46
2023-01-22T08:39:35.132Z,1018.49
2023-01-22T08:40:37.742Z,1018.49
2023-01-22T08:41:35.125Z,1018.49
2023-01-22T08:42:35.069Z,1018.51
2023-01-22T08:43:35.059Z,1018.51
2023-01-22T08:44:35.069Z,1018.52
2023-01-22T08:45:35.118Z,1018.52
2023-01-22T08:46:35.072Z,1018.54
2023-01-22T08:47:35.034Z,1018.54
2023-01-22T08:48:35.012Z,1018.53
2023-01-22T08:49:35.006Z,1018.54
2023-01-22T08:50:34.974Z,1018.54
2023-01-22T08:51:34.996Z,1018.55
2023-01-22T08:52:34.984Z,1018.55
2023-01-22T08:53:34.971Z,1018.54
2023-01-22T08:54:34.939Z,1018.55
2023-01-22T08:55:35.229Z,1018.55
2023-01-22T08:56:34.939Z,1018.55
2023-01-22T08:57:34.908Z,1018.58
2023-01-22T08:58:34.905Z,1018.62
2023-01-22T08:59:34.898Z,1018.62
2023-01-22T09:00:34.903Z,1018.64
2023-01-22T09:01:34.880Z,1018.67
2023-01-22T09:02:34.858Z,1018.65
2023-01-22T09:03:34.899Z,1018.65
2023-01-22T09:04:34.923Z,1018.67
2023-01-22T09:05:34.908Z,1018.68
2023-01-22T09:06:34.860Z,1018.65
2023-01-22T09:07:34.825Z,1018.69
2023-01-22T09:08:34.831Z,1018.67
2023-01-22T09:09:34.793Z,1018.67
2023-01-22T09:10:34.782Z,1018.66
2023-01-22T09:11:34.772Z,1018.64
2023-01-22T09:12:34.766Z,1018.64
2023-01-22T09:13:34.788Z,1018.62
2023-01-22T09:14:34.731Z,1018.65
2023-01-22T09:15:34.741Z,1018.66
2023-01-22T09:16:34.754Z,1018.65
2023-01-22T09:17:34.711Z,1018.65
2023-01-22T09:18:34.692Z,1018.68
2023-01-22T09:19:34.702Z,1018.69
2023-01-22T09:20:34.720Z,1018.69
2023-01-22T09:21:34.662Z,1018.70
2023-01-22T09:22:34.651Z,1018.70
2023-01-22T09:23:34.656Z,1018.69
2023-01-22T09:24:34.646Z,1018.69
2023-01-22T09:25:34.646Z,1018.71
2023-01-22T09:26:34.622Z,1018.70
2023-01-22T09:27:34.632Z,1018.69
2023-01-22T09:28:36.098Z,1018.71
2023-01-22T09:29:34.584Z,1018.70
2023-01-22T09:30:34.610Z,1018.71
2023-01-22T09:31:34.671Z,1018.72
2023-01-22T09:32:34.551Z,1018.73
2023-01-22T09:33:34.566Z,1018.71
2023-01-22T09:34:34.531Z,1018.72
2023-01-22T09:35:34.550Z,1018.74
2023-01-22T09:36:34.524Z,1018.73
2023-01-22T09:37:34.509Z,1018.74
2023-01-22T09:38:34.502Z,1018.74
2023-01-22T09:39:34.554Z,1018.75
2023-01-22T09:40:36.187Z,1018.74
2023-01-22T09:41:34.460Z,1018.76
2023-01-22T09:42:34.483Z,1018.76
2023-01-22T09:43:34.445Z,1018.77
2023-01-22T09:44:34.478Z,1018.78
2023-01-22T09:45:34.505Z,1018.77
2023-01-22T09:46:34.415Z,1018.76
2023-01-22T09:47:34.422Z,1018.74
2023-01-22T09:48:34.381Z,1018.75
2023-01-22T09:49:34.384Z,1018.72
2023-01-22T09:50:34.377Z,1018.70
2023-01-22T09:51:34.367Z,1018.70
2023-01-22T09:52:34.337Z,1018.69
2023-01-22T09:53:34.347Z,1018.69
2023-01-22T09:54:34.319Z,1018.68
2023-01-22T09:55:34.545Z,1018.69
2023-01-22T09:56:34.320Z,1018.67
2023-01-22T09:57:34.323Z,1018.64
2023-01-22T09:58:34.335Z,1018.67
2023-01-22T09:59:34.291Z,1018.65
2023-01-22T10:00:34.288Z,1018.69
2023-01-22T10:01:34.354Z,1018.69
2023-01-22T10:02:34.365Z,1018.68
2023-01-22T10:03:34.237Z,1018.67
2023-01-22T10:04:34.281Z,1018.66
2023-01-22T10:05:34.269Z,1018.66
2023-01-22T10:06:34.196Z,1018.65
2023-01-22T10:07:34.202Z,1018.65
2023-01-22T10:08:34.205Z,1018.63
2023-01-22T10:09:34.196Z,1018.64
2023-01-22T10:10:34.186Z,1018.62
2023-01-22T10:11:34.185Z,1018.63
2023-01-22T10:12:34.139Z,1018.62
2023-01-22T10:13:34.280Z,1018.61
2023-01-22T10:14:34.212Z,1018.58
2023-01-22T10:15:34.133Z,1018.58
2023-01-22T10:16:34.160Z,1018.58
2023-01-22T10:17:34.119Z,1018.58
2023-01-22T10:18:34.100Z,1018.55
2023-01-22T10:19:34.075Z,1018.53
2023-01-22T10:20:34.119Z,1018.55
2023-01-22T10:21:34.108Z,1018.56
2023-01-22T10:22:34.049Z,1018.57
2023-01-22T10:23:34.135Z,1018.56
2023-01-22T10:24:34.029Z,1018.58
2023-01-22T10:25:34.014Z,1018.58
2023-01-22T10:26:34.034Z,1018.58
2023-01-22T10:27:34.038Z,1018.57
2023-01-22T10:28:34.030Z,1018.56
2023-01-22T10:29:33.978Z,1018.54
2023-01-22T10:30:33.996Z,1018.55
2023-01-22T10:31:34.132Z,1018.52
2023-01-22T10:32:33.992Z,1018.51
2023-01-22T10:33:33.922Z,1018.51
2023-01-22T10:34:33.909Z,1018.51
2023-01-22T10:35:34.073Z,1018.51
2023-01-22T10:36:34.351Z,1018.51
2023-01-22T10:37:33.922Z,1018.52
2023-01-22T10:38:34.173Z,1018.51
2023-01-22T10:39:33.965Z,1018.55
2023-01-22T10:40:33.865Z,1018.53
2023-01-22T10:41:33.843Z,1018.55
2023-01-22T10:42:33.827Z,1018.52
2023-01-22T10:43:33.842Z,1018.53
2023-01-22T10:44:33.826Z,1018.53
2023-01-22T10:45:33.789Z,1018.52
2023-01-22T10:46:33.988Z,1018.54
2023-01-22T10:47:33.784Z,1018.56
2023-01-22T10:48:33.762Z,1018.54
2023-01-22T10:49:33.781Z,1018.53
2023-01-22T10:50:33.759Z,1018.54
2023-01-22T10:51:33.743Z,1018.53
2023-01-22T10:52:33.723Z,1018.57
2023-01-22T10:53:33.715Z,1018.59
2023-01-22T10:54:33.698Z,1018.61
2023-01-22T10:55:33.691Z,1018.55
2023-01-22T10:56:33.728Z,1018.52
2023-01-22T10:57:33.741Z,1018.51
2023-01-22T10:58:33.688Z,1018.49
2023-01-22T10:59:33.659Z,1018.48
2023-01-22T11:00:46.783Z,1018.49
2023-01-22T11:01:33.755Z,1018.44
2023-01-22T11:02:33.655Z,1018.44
2023-01-22T11:03:33.629Z,1018.43
2023-01-22T11:04:33.738Z,1018.41
2023-01-22T11:05:33.595Z,1018.42
2023-01-22T11:06:33.687Z,1018.41
2023-01-22T11:07:33.588Z,1018.40
2023-01-22T11:08:33.567Z,1018.40
2023-01-22T11:09:33.556Z,1018.39
2023-01-22T11:10:33.539Z,1018.37
2023-01-22T11:11:33.641Z,1018.37
2023-01-22T11:12:33.558Z,1018.40
2023-01-22T11:13:40.050Z,1018.38
2023-01-22T11:14:33.524Z,1018.40
2023-01-22T11:15:34.649Z,1018.41
2023-01-22T11:16:33.507Z,1018.43
2023-01-22T11:17:33.684Z,1018.39
2023-01-22T11:18:33.473Z,1018.37
2023-01-22T11:19:37.588Z,1018.40
2023-01-22T11:20:33.477Z,1018.40
2023-01-22T11:21:33.446Z,1018.42
2023-01-22T11:22:33.429Z,1018.42
2023-01-22T11:23:33.400Z,1018.41
2023-01-22T11:24:33.419Z,1018.41
2023-01-22T11:25:33.382Z,1018.42
2023-01-22T11:26:33.406Z,1018.44
2023-01-22T11:27:33.409Z,1018.45
2023-01-22T11:28:33.497Z,1018.45
2023-01-22T11:29:33.690Z,1018.46
2023-01-22T11:30:33.493Z,1018.48
2023-01-22T11:31:33.435Z,1018.48
2023-01-22T11:32:33.316Z,1018.46
2023-01-22T11:33:33.318Z,1018.52
2023-01-22T11:34:33.301Z,1018.54
2023-01-22T11:35:33.314Z,1018.53
2023-01-22T11:36:33.318Z,1018.53
2023-01-22T11:37:33.344Z,1018.51
2023-01-22T11:38:33.376Z,1018.48
2023-01-22T11:39:33.240Z,1018.44
2023-01-22T11:40:33.678Z,1018.45
2023-01-22T11:41:33.227Z,1018.45
2023-01-22T11:42:33.233Z,1018.46
2023-01-22T11:43:33.208Z,1018.45
2023-01-22T11:44:33.197Z,1018.45
2023-01-22T11:45:33.191Z,1018.46
2023-01-22T11:46:33.204Z,1018.45
2023-01-22T11:47:33.211Z,1018.46
2023-01-22T11:48:33.162Z,1018.46
2023-01-22T11:49:33.130Z,1018.47
2023-01-22T11:50:33.180Z,1018.48
2023-01-22T11:51:33.124Z,1018.48
2023-01-22T11:52:33.470Z,1018.47
2023-01-22T11:53:33.101Z,1018.46
2023-01-22T11:54:33.094Z,1018.47
2023-01-22T11:55:33.075Z,1018.45
2023-01-22T11:56:33.087Z,1018.45
2023-01-22T11:57:33.254Z,1018.45
2023-01-22T11:58:33.123Z,1018.44
2023-01-22T11:59:33.032Z,1018.44
2023-01-22T12:00:33.461Z,1018.44
2023-01-22T12:01:33.043Z,1018.45
2023-01-22T12:02:33.176Z,1018.45
2023-01-22T12:03:33.093Z,1018.46
2023-01-22T12:04:32.983Z,1018.47
2023-01-22T12:05:33.056Z,1018.47